Arvilla, North Dakota
Current Conditions -  °F | °C
As of 4:58 PM on Monday 20 Oct 2014 (Local Time) from KRDR Reporting Station
Clear Clear  
Wind Chill: 15°   Ceiling: Unl
Heat Index: 15°   Visibility: 10mi
Dew Point:   Wind: 5mph
Humidity: 57%   Direction: 120°ESE
Pressure: 30.03"   Gusts: NA
Location:  47.92°N, 97.49°W
Report Text: KRDR 202158Z AUTO 12004KT 10SM CLR 15/07 A3003 RMK AO2 SLP179 T01510065
Loading
Personal Weather Stations






























Interactive Weather Map
Tropical Storm Tracking
New forecast layout! Learn more

10-Day Weather Forecast

Advertisements
Track Severe Weather on mobile